Time;durP1;ratioP1;P1;durP2;ratioP2;P2;SDS_P1;SDS_P2;PMS_P1;PMS_P2;Temp;Humidity;BMP_temperature;BMP_pressure;BME280_temperature;BME280_humidity;BME280_pressure;Samples;Min_cycle;Max_cycle;Signal;HPM_P1;HPM_P2
2021/06/20 00:00:54;;;;;;;7.43;4.57;;;19.60;99.90;;;;;;6215397;23;20000;-79
2021/06/20 00:03:20;;;;;;;9.27;4.20;;;19.60;99.90;;;;;;6215528;23;20011;-79
2021/06/20 00:05:54;;;;;;;5.53;4.50;;;19.40;99.90;;;;;;6215411;23;20004;-80
2021/06/20 00:08:21;;;;;;;8.50;4.40;;;19.20;99.90;;;;;;6214723;23;20020;-79
2021/06/20 00:10:49;;;;;;;9.88;4.68;;;19.00;99.90;;;;;;6215080;23;20004;-80
2021/06/20 00:13:16;;;;;;;8.60;4.43;;;18.80;99.90;;;;;;6215003;23;20442;-80
2021/06/20 00:15:42;;;;;;;6.70;4.43;;;18.90;99.90;;;;;;6215097;23;20461;-80
2021/06/20 00:18:08;;;;;;;11.18;4.75;;;19.00;99.90;;;;;;6217294;23;19997;-79
2021/06/20 00:20:37;;;;;;;6.18;4.47;;;19.10;99.90;;;;;;6214875;23;20059;-80
2021/06/20 00:23:03;;;;;;;9.57;4.73;;;19.10;99.90;;;;;;6216016;23;20024;-79
2021/06/20 00:25:29;;;;;;;7.90;4.22;;;19.10;99.90;;;;;;6215982;23;19997;-80
2021/06/20 00:27:56;;;;;;;7.32;4.28;;;18.90;99.90;;;;;;6216006;23;20068;-79
2021/06/20 00:30:25;;;;;;;6.43;4.88;;;19.00;99.90;;;;;;6215617;23;19996;-79
2021/06/20 00:32:51;;;;;;;6.15;4.30;;;19.10;99.90;;;;;;6216094;23;20007;-79
2021/06/20 00:35:18;;;;;;;5.03;3.90;;;19.20;99.90;;;;;;6216074;23;19992;-79
2021/06/20 00:37:44;;;;;;;5.50;4.20;;;19.20;99.90;;;;;;6215345;23;20014;-79
2021/06/20 00:40:11;;;;;;;10.70;4.68;;;19.00;99.90;;;;;;6216218;23;20312;-79
2021/06/20 00:42:37;;;;;;;6.10;4.47;;;19.00;99.90;;;;;;6215948;23;19993;-80
2021/06/20 00:45:04;;;;;;;4.38;3.97;;;18.90;99.90;;;;;;6216087;23;20028;-79
2021/06/20 00:47:31;;;;;;;6.45;4.60;;;19.00;99.90;;;;;;6215586;23;20000;-79
2021/06/20 00:49:56;;;;;;;10.43;4.78;;;19.00;99.90;;;;;;6215553;23;20343;-79
2021/06/20 00:52:22;;;;;;;7.70;4.68;;;18.80;99.90;;;;;;6215992;23;19997;-79
2021/06/20 00:54:48;;;;;;;6.95;5.60;;;18.40;99.90;;;;;;6215607;23;20091;-79
2021/06/20 00:57:19;;;;;;;11.60;5.47;;;18.30;99.90;;;;;;6215962;23;19996;-80
2021/06/20 00:59:46;;;;;;;7.47;4.82;;;18.40;99.90;;;;;;6216029;23;19993;-79
2021/06/20 01:02:13;;;;;;;6.65;5.15;;;18.60;99.90;;;;;;6215496;23;20007;-79
2021/06/20 01:04:40;;;;;;;7.82;5.13;;;18.40;99.90;;;;;;6215401;23;19997;-79
2021/06/20 01:07:06;;;;;;;5.03;4.47;;;18.40;99.90;;;;;;6215968;23;20021;-80
2021/06/20 01:09:32;;;;;;;7.07;5.03;;;18.40;99.90;;;;;;6215612;23;20000;-79
2021/06/20 01:11:59;;;;;;;6.68;4.45;;;18.50;99.90;;;;;;6215913;23;20067;-79
2021/06/20 01:14:25;;;;;;;7.20;4.72;;;18.40;99.90;;;;;;6215495;23;20435;-79
2021/06/20 01:16:53;;;;;;;6.47;5.15;;;18.30;99.90;;;;;;6215842;23;20003;-80
2021/06/20 01:19:19;;;;;;;6.55;4.90;;;18.10;99.90;;;;;;6215266;23;20385;-79
2021/06/20 01:21:46;;;;;;;8.52;5.32;;;18.00;99.90;;;;;;6215262;23;19997;-80
2021/06/20 01:24:12;;;;;;;5.82;4.60;;;18.00;99.90;;;;;;6215684;23;20000;-79
2021/06/20 01:26:39;;;;;;;5.38;4.10;;;18.00;99.90;;;;;;6215383;23;20022;-80
2021/06/20 01:29:09;;;;;;;6.70;4.70;;;18.00;99.90;;;;;;6215640;23;20001;-79
2021/06/20 01:31:36;;;;;;;6.38;4.50;;;18.10;99.90;;;;;;6215313;23;20004;-80
2021/06/20 01:34:06;;;;;;;5.70;4.32;;;18.00;99.90;;;;;;6215141;23;20335;-80
2021/06/20 01:36:33;;;;;;;13.20;4.80;;;18.00;99.90;;;;;;6215205;23;20350;-79
2021/06/20 01:38:59;;;;;;;10.38;5.15;;;17.90;99.90;;;;;;6215531;23;20003;-80
2021/06/20 01:41:25;;;;;;;5.18;4.65;;;18.00;99.90;;;;;;6215514;23;20067;-79
2021/06/20 01:43:51;;;;;;;9.93;5.22;;;17.80;99.90;;;;;;6215348;23;20000;-79
2021/06/20 01:46:17;;;;;;;10.65;5.65;;;17.40;99.90;;;;;;6215670;23;20079;-80
2021/06/20 01:48:43;;;;;;;5.57;4.85;;;17.30;99.90;;;;;;6214795;23;20004;-79
2021/06/20 01:51:09;;;;;;;5.85;4.97;;;17.50;99.90;;;;;;6215593;23;19997;-79
2021/06/20 01:53:35;;;;;;;8.85;5.10;;;17.60;99.90;;;;;;6215308;23;20320;-79
2021/06/20 01:56:01;;;;;;;7.55;5.38;;;17.70;99.90;;;;;;6215394;23;20003;-80
2021/06/20 01:58:27;;;;;;;7.22;4.65;;;17.80;99.90;;;;;;6215659;23;19996;-80
2021/06/20 02:00:53;;;;;;;7.38;5.65;;;17.90;99.90;;;;;;6215306;23;20308;-79
2021/06/20 02:03:23;;;;;;;6.30;5.00;;;18.00;99.90;;;;;;6214626;23;20443;-80
2021/06/20 02:05:49;;;;;;;;;;;17.90;99.90;;;;;;6215827;23;20050;-80
2021/06/20 02:08:18;;;;;;;5.90;5.15;;;17.80;99.90;;;;;;6215430;23;19946;-80
2021/06/20 02:10:49;;;;;;;4.50;4.07;;;17.70;99.90;;;;;;6188511;23;20000;-79
2021/06/20 02:13:15;;;;;;;6.40;4.47;;;17.50;99.90;;;;;;6214944;23;20032;-79
2021/06/20 02:15:41;;;;;;;11.35;4.90;;;17.40;99.90;;;;;;6215143;23;20315;-79
2021/06/20 02:18:06;;;;;;;8.60;5.05;;;17.60;99.90;;;;;;6214690;23;19997;-79
2021/06/20 02:20:32;;;;;;;6.35;4.78;;;17.60;99.90;;;;;;6215226;23;20434;-80
2021/06/20 02:22:58;;;;;;;5.43;4.60;;;17.60;99.90;;;;;;6215265;23;20020;-80
2021/06/20 02:25:25;;;;;;;7.53;4.45;;;17.60;99.90;;;;;;6214886;23;20004;-80
2021/06/20 02:27:53;;;;;;;7.80;5.22;;;17.60;99.90;;;;;;6215051;23;19997;-80
2021/06/20 02:30:19;;;;;;;7.38;5.20;;;17.50;99.90;;;;;;6215207;23;19996;-80
2021/06/20 02:32:45;;;;;;;11.75;5.43;;;17.30;99.90;;;;;;6187853;23;20187;-80
2021/06/20 02:35:13;;;;;;;8.63;5.13;;;17.20;99.90;;;;;;6215001;23;20016;-80
2021/06/20 02:37:40;;;;;;;8.93;5.38;;;17.40;99.90;;;;;;6214651;23;20004;-80
2021/06/20 02:40:08;;;;;;;8.13;5.80;;;17.20;99.90;;;;;;6214896;23;20048;-80
2021/06/20 02:42:33;;;;;;;6.65;4.75;;;17.20;99.90;;;;;;6214742;23;20000;-79
2021/06/20 02:45:00;;;;;;;5.72;4.70;;;17.40;99.90;;;;;;6214810;23;20000;-79
2021/06/20 02:47:26;;;;;;;6.03;5.40;;;17.50;99.90;;;;;;6214349;23;20450;-79
2021/06/20 02:49:52;;;;;;;10.77;5.70;;;17.50;99.90;;;;;;6214813;23;20004;-79
2021/06/20 02:52:18;;;;;;;8.27;4.80;;;17.50;99.90;;;;;;6214965;23;20316;-79
2021/06/20 02:54:51;;;;;;;5.53;4.97;;;17.40;99.90;;;;;;6214474;23;20028;-79
2021/06/20 02:57:21;;;;;;;9.80;5.80;;;17.00;99.90;;;;;;6218201;23;20055;-79
2021/06/20 02:59:47;;;;;;;6.10;4.70;;;17.00;99.90;;;;;;6188710;23;20008;-79
2021/06/20 03:02:13;;;;;;;8.77;5.38;;;16.90;99.90;;;;;;6214350;23;20384;-80
2021/06/20 03:04:39;;;;;;;7.93;5.95;;;17.00;99.90;;;;;;6214670;23;20020;-80
2021/06/20 03:07:05;;;;;;;16.23;5.80;;;17.10;99.90;;;;;;6214827;23;20008;-80
2021/06/20 03:09:32;;;;;;;8.00;5.35;;;17.00;99.90;;;;;;6214763;23;20011;-80
2021/06/20 03:11:57;;;;;;;6.97;5.90;;;16.80;99.90;;;;;;6214489;23;20000;-80
2021/06/20 03:14:23;;;;;;;7.38;5.63;;;16.80;99.90;;;;;;6214419;23;20076;-79
2021/06/20 03:16:49;;;;;;;7.80;5.55;;;16.90;99.90;;;;;;6214143;23;19996;-79
2021/06/20 03:19:15;;;;;;;8.15;6.07;;;16.90;99.90;;;;;;6214740;23;20068;-79
2021/06/20 03:21:42;;;;;;;6.68;5.10;;;16.90;99.90;;;;;;6214616;23;20003;-79
2021/06/20 03:24:08;;;;;;;11.88;5.53;;;16.80;99.90;;;;;;6214642;23;20075;-79
2021/06/20 03:26:34;;;;;;;5.97;5.38;;;16.70;99.90;;;;;;6214408;23;19997;-79
2021/06/20 03:29:00;;;;;;;9.77;5.00;;;16.70;99.90;;;;;;6214395;23;20115;-79
2021/06/20 03:31:27;;;;;;;8.43;5.22;;;16.50;99.90;;;;;;6214126;23;20326;-79
2021/06/20 03:33:55;;;;;;;9.93;5.30;;;16.50;99.90;;;;;;6214337;23;20000;-79
2021/06/20 03:36:20;;;;;;;7.25;5.10;;;16.50;99.90;;;;;;6214480;23;20019;-79
2021/06/20 03:38:46;;;;;;;12.95;5.45;;;16.60;99.90;;;;;;6214389;23;20071;-79
2021/06/20 03:41:12;;;;;;;9.02;5.72;;;16.50;99.90;;;;;;6214496;23;19993;-79
2021/06/20 03:43:39;;;;;;;5.70;5.20;;;16.40;99.90;;;;;;6214478;23;20001;-79
2021/06/20 03:46:05;;;;;;;14.77;5.70;;;16.60;99.90;;;;;;6213991;23;20004;-79
2021/06/20 03:48:31;;;;;;;15.05;5.82;;;16.60;99.90;;;;;;6214509;23;20449;-79
2021/06/20 03:50:56;;;;;;;10.18;5.70;;;16.70;99.90;;;;;;6214432;23;20008;-79
2021/06/20 03:53:22;;;;;;;12.65;5.40;;;16.70;99.90;;;;;;6214409;23;20337;-79
2021/06/20 03:55:48;;;;;;;7.97;5.40;;;16.60;99.90;;;;;;6214431;23;20016;-80
2021/06/20 03:58:14;;;;;;;14.52;5.82;;;16.50;99.90;;;;;;6187652;23;20116;-79
2021/06/20 04:00:40;;;;;;;9.18;5.50;;;16.40;99.90;;;;;;6214129;23;19993;-79
2021/06/20 04:03:05;;;;;;;7.22;5.45;;;16.50;99.90;;;;;;6214465;23;20000;-79
2021/06/20 04:05:32;;;;;;;11.80;6.30;;;16.60;99.90;;;;;;6214418;23;20469;-80
2021/06/20 04:07:59;;;;;;;10.07;5.07;;;16.40;99.90;;;;;;6214492;23;20387;-79
2021/06/20 04:10:25;;;;;;;8.02;5.55;;;16.50;99.90;;;;;;6214542;23;19993;-80
2021/06/20 04:12:53;;;;;;;12.52;5.38;;;16.60;99.90;;;;;;6214059;23;20051;-79
2021/06/20 04:15:19;;;;;;;7.07;5.50;;;16.50;99.90;;;;;;6214017;23;20075;-79
2021/06/20 04:17:46;;;;;;;8.13;5.85;;;16.30;99.90;;;;;;6214514;23;19993;-80
2021/06/20 04:20:13;;;;;;;9.45;5.72;;;16.30;99.90;;;;;;6214256;23;20072;-79
2021/06/20 04:22:40;;;;;;;10.02;5.57;;;16.30;99.90;;;;;;6214531;23;20003;-79
2021/06/20 04:25:06;;;;;;;11.98;6.35;;;16.20;99.90;;;;;;6214042;23;20431;-79
2021/06/20 04:27:32;;;;;;;10.50;6.70;;;16.20;99.90;;;;;;6213989;23;20438;-79
2021/06/20 04:29:58;;;;;;;7.45;5.75;;;16.40;99.90;;;;;;6215319;23;20047;-79
2021/06/20 04:32:24;;;;;;;7.13;5.13;;;16.30;99.90;;;;;;6189522;23;20004;-79
2021/06/20 04:34:49;;;;;;;10.73;5.90;;;16.40;99.90;;;;;;6216103;23;20039;-79
2021/06/20 04:37:15;;;;;;;12.43;5.82;;;16.30;99.90;;;;;;6215890;23;20005;-80
2021/06/20 04:39:41;;;;;;;9.10;5.65;;;16.20;99.90;;;;;;6216155;23;19997;-80
2021/06/20 04:42:09;;;;;;;9.70;6.03;;;16.20;99.90;;;;;;6215127;23;20122;-79
2021/06/20 04:44:45;;;;;;;9.35;5.95;;;16.40;99.90;;;;;;6216019;23;20007;-79
2021/06/20 04:47:13;;;;;;;7.88;6.35;;;16.60;99.90;;;;;;6215815;23;20343;-79
2021/06/20 04:49:40;;;;;;;7.70;5.57;;;16.70;99.90;;;;;;6216194;23;20067;-79
2021/06/20 04:52:07;;;;;;;7.78;5.10;;;16.80;99.90;;;;;;6215961;23;20000;-79
2021/06/20 04:54:35;;;;;;;7.38;5.40;;;16.70;99.90;;;;;;6216024;23;19996;-79
2021/06/20 04:57:02;;;;;;;10.00;6.57;;;16.60;99.90;;;;;;6215384;23;20027;-80
2021/06/20 04:59:28;;;;;;;8.60;6.88;;;16.60;99.90;;;;;;6189294;23;20016;-79
2021/06/20 05:01:55;;;;;;;10.07;6.65;;;16.70;99.90;;;;;;6216023;23;20004;-79
2021/06/20 05:04:20;;;;;;;9.75;6.13;;;16.90;99.90;;;;;;6189299;23;20011;-79
2021/06/20 05:06:46;;;;;;;8.57;6.22;;;17.10;99.90;;;;;;6215903;23;20067;-79
2021/06/20 05:09:12;;;;;;;11.43;6.47;;;17.20;99.90;;;;;;6215651;23;19996;-79
2021/06/20 05:11:38;;;;;;;7.45;6.35;;;17.20;99.90;;;;;;6188389;23;20055;-79
2021/06/20 05:14:04;;;;;;;7.85;6.57;;;17.20;99.90;;;;;;6215574;23;20005;-79
2021/06/20 05:16:30;;;;;;;6.70;5.88;;;17.00;99.90;;;;;;6215890;23;20076;-79
2021/06/20 05:18:55;;;;;;;9.55;7.25;;;17.10;99.90;;;;;;6215788;23;20477;-79
2021/06/20 05:21:21;;;;;;;7.97;7.07;;;16.80;99.90;;;;;;6215630;23;20426;-79
2021/06/20 05:23:47;;;;;;;10.27;7.20;;;16.80;99.90;;;;;;6215710;23;20350;-79
2021/06/20 05:26:14;;;;;;;7.20;5.57;;;16.90;99.90;;;;;;6214649;23;20398;-80
2021/06/20 05:28:40;;;;;;;10.63;7.18;;;17.00;99.90;;;;;;6215681;23;20051;-79
2021/06/20 05:31:06;;;;;;;7.00;6.30;;;17.10;99.90;;;;;;6215645;23;20071;-79
2021/06/20 05:33:32;;;;;;;7.57;6.32;;;17.10;99.90;;;;;;6215767;23;20035;-80
2021/06/20 05:35:58;;;;;;;8.40;6.57;;;16.90;99.90;;;;;;6215179;23;19993;-79
2021/06/20 05:38:23;;;;;;;7.53;6.80;;;16.90;99.90;;;;;;6214947;23;20466;-79
2021/06/20 05:40:49;;;;;;;9.25;6.53;;;16.90;99.90;;;;;;6214419;23;20119;-79
2021/06/20 05:43:15;;;;;;;10.15;6.30;;;16.90;99.90;;;;;;6215450;23;20028;-79
2021/06/20 05:45:41;;;;;;;6.18;5.60;;;16.90;99.90;;;;;;6215257;23;20015;-79
2021/06/20 05:48:07;;;;;;;8.95;7.22;;;16.90;99.90;;;;;;6215280;23;20079;-79
2021/06/20 05:50:32;;;;;;;9.98;6.03;;;16.90;99.90;;;;;;6215294;23;19997;-79
2021/06/20 05:52:58;;;;;;;8.65;6.78;;;16.60;99.90;;;;;;6215485;23;20023;-79
2021/06/20 05:55:24;;;;;;;7.32;6.35;;;16.60;99.90;;;;;;6214310;23;19993;-80
2021/06/20 05:57:50;;;;;;;11.55;7.00;;;16.70;99.90;;;;;;6215481;23;20086;-79
2021/06/20 06:00:16;;;;;;;10.18;6.82;;;16.70;99.90;;;;;;6214663;23;20003;-80
2021/06/20 06:02:42;;;;;;;8.35;6.57;;;16.70;99.90;;;;;;6215409;23;19993;-79
2021/06/20 06:05:10;;;;;;;7.95;7.15;;;16.80;99.90;;;;;;6215561;23;20000;-79
2021/06/20 06:07:36;;;;;;;9.95;7.57;;;16.60;99.90;;;;;;6215409;23;20504;-80
2021/06/20 06:10:05;;;;;;;10.93;7.25;;;16.70;99.90;;;;;;6215009;23;20008;-79
2021/06/20 06:12:30;;;;;;;9.60;7.82;;;16.80;99.90;;;;;;6214056;23;20024;-79
2021/06/20 06:14:56;;;;;;;11.85;7.65;;;16.80;99.90;;;;;;6215288;23;20059;-79
2021/06/20 06:17:23;;;;;;;12.25;7.13;;;16.90;99.90;;;;;;6215136;23;20000;-80
2021/06/20 06:19:49;;;;;;;9.90;6.30;;;17.00;99.90;;;;;;6215341;23;20434;-80
2021/06/20 06:22:20;;;;;;;7.95;6.38;;;17.30;99.90;;;;;;6214442;23;19996;-80
2021/06/20 06:24:46;;;;;;;7.38;6.78;;;17.40;99.90;;;;;;6214825;23;20001;-80
2021/06/20 06:27:13;;;;;;;7.53;6.20;;;17.60;99.90;;;;;;6215016;23;20433;-80
2021/06/20 06:29:39;;;;;;;10.98;6.90;;;17.80;99.90;;;;;;6215200;23;20000;-80
2021/06/20 06:32:06;;;;;;;7.07;6.07;;;18.10;99.90;;;;;;6214858;23;20304;-79
2021/06/20 06:34:33;;;;;;;9.77;6.90;;;18.40;99.90;;;;;;6214959;23;20000;-79
2021/06/20 06:36:59;;;;;;;9.57;7.05;;;18.70;99.90;;;;;;6214735;23;20351;-79
2021/06/20 06:39:26;;;;;;;10.88;6.05;;;18.70;99.90;;;;;;6214418;23;20000;-79
2021/06/20 06:41:52;;;;;;;9.10;6.63;;;18.80;99.90;;;;;;6215011;23;20067;-79
2021/06/20 06:44:18;;;;;;;7.65;6.95;;;19.20;99.90;;;;;;6215030;23;19996;-79
2021/06/20 06:46:44;;;;;;;10.50;6.72;;;19.30;99.90;;;;;;6214926;23;20001;-79
2021/06/20 06:49:10;;;;;;;6.10;5.10;;;19.30;99.90;;;;;;6214877;23;20007;-79
2021/06/20 06:51:36;;;;;;;9.68;6.38;;;19.10;99.90;;;;;;6187271;23;20079;-79
2021/06/20 06:54:02;;;;;;;8.95;6.15;;;19.10;99.90;;;;;;6214157;23;20348;-79
2021/06/20 06:56:28;;;;;;;8.63;6.10;;;19.10;99.90;;;;;;6214519;23;19997;-80
2021/06/20 06:58:54;;;;;;;7.35;5.68;;;19.00;99.90;;;;;;6214813;23;20020;-79
2021/06/20 07:01:20;;;;;;;7.03;6.03;;;19.00;99.90;;;;;;6214200;23;20339;-79
2021/06/20 07:03:45;;;;;;;8.75;5.88;;;18.90;99.90;;;;;;6214693;23;20000;-79
2021/06/20 07:06:11;;;;;;;8.88;6.25;;;18.90;99.90;;;;;;6212541;23;20004;-79
2021/06/20 07:08:38;;;;;;;8.18;5.65;;;18.90;99.90;;;;;;6212707;23;20004;-79
2021/06/20 07:11:04;;;;;;;10.40;5.93;;;18.80;99.90;;;;;;6213426;23;19997;-79
2021/06/20 07:13:31;;;;;;;6.95;6.13;;;18.70;99.90;;;;;;6213433;23;20001;-79
2021/06/20 07:15:57;;;;;;;8.98;6.80;;;18.40;99.90;;;;;;6213450;23;19996;-79
2021/06/20 07:18:23;;;;;;;7.57;6.38;;;18.20;99.90;;;;;;6213283;23;19993;-79
2021/06/20 07:20:48;;;;;;;12.52;6.88;;;18.10;99.90;;;;;;6213251;23;19997;-79
2021/06/20 07:23:14;;;;;;;22.15;8.30;;;18.10;99.90;;;;;;6212869;23;19993;-79
2021/06/20 07:25:40;;;;;;;9.50;7.25;;;18.00;99.90;;;;;;6213016;23;19993;-79
2021/06/20 07:28:07;;;;;;;11.23;8.75;;;18.10;99.90;;;;;;6213708;23;20069;-79
2021/06/20 07:30:33;;;;;;;11.07;8.88;;;17.70;99.90;;;;;;6187513;23;20051;-78
2021/06/20 07:32:59;;;;;;;15.50;9.45;;;17.60;99.90;;;;;;6213166;23;20477;-78
2021/06/20 07:35:26;;;;;;;15.93;10.32;;;17.50;99.90;;;;;;6212688;23;19993;-77
2021/06/20 07:37:52;;;;;;;15.18;10.43;;;17.50;99.90;;;;;;6212226;23;20024;-76
2021/06/20 07:40:19;;;;;;;13.68;10.75;;;17.60;99.90;;;;;;6212973;23;19996;-76
2021/06/20 07:42:45;;;;;;;20.08;11.88;;;18.30;99.90;;;;;;6214038;23;19999;-76
2021/06/20 07:45:12;;;;;;;16.25;12.23;;;18.20;99.90;;;;;;6187665;23;20032;-77
2021/06/20 07:47:39;;;;;;;12.63;11.35;;;18.10;99.90;;;;;;6214140;23;19996;-76
2021/06/20 07:50:07;;;;;;;12.55;10.07;;;18.10;99.90;;;;;;6214304;23;20123;-77
2021/06/20 07:52:33;;;;;;;14.85;10.55;;;18.30;99.90;;;;;;6213721;23;20023;-77
2021/06/20 07:54:59;;;;;;;10.70;9.25;;;18.80;99.90;;;;;;6214286;23;20001;-77
2021/06/20 07:57:25;;;;;;;13.50;9.00;;;18.90;99.90;;;;;;6213712;23;20490;-77
2021/06/20 07:59:51;;;;;;;9.35;8.45;;;18.90;99.90;;;;;;6212231;23;20001;-77
2021/06/20 08:02:17;;;;;;;11.93;8.30;;;18.80;99.90;;;;;;6213103;23;20434;-77
2021/06/20 08:04:44;;;;;;;10.43;7.72;;;18.70;99.90;;;;;;6213962;23;20000;-77
2021/06/20 08:07:10;;;;;;;8.32;7.38;;;18.50;99.90;;;;;;6215313;23;20334;-77
2021/06/20 08:09:36;;;;;;;10.25;7.80;;;18.50;99.90;;;;;;6215579;23;20001;-77
2021/06/20 08:12:03;;;;;;;10.13;6.90;;;18.50;99.90;;;;;;6215328;23;20076;-77
2021/06/20 08:14:31;;;;;;;9.50;7.65;;;18.50;99.90;;;;;;6182120;23;20004;-78
2021/06/20 08:16:57;;;;;;;12.25;7.47;;;18.50;99.90;;;;;;6214198;23;19993;-78
2021/06/20 08:19:22;;;;;;;8.75;7.65;;;18.60;99.90;;;;;;6214476;23;20000;-78
2021/06/20 08:21:49;;;;;;;9.32;7.03;;;18.70;99.90;;;;;;6214599;23;20003;-78
2021/06/20 08:24:15;;;;;;;6.97;6.28;;;18.70;99.90;;;;;;6214618;23;20517;-78
2021/06/20 08:26:41;;;;;;;7.13;6.43;;;18.50;99.90;;;;;;6214491;23;20005;-77
2021/06/20 08:29:08;;;;;;;8.63;6.70;;;18.60;99.90;;;;;;6214446;23;20073;-78
2021/06/20 08:31:34;;;;;;;8.38;7.05;;;18.70;99.90;;;;;;6214798;23;20001;-78
2021/06/20 08:34:01;;;;;;;8.18;7.45;;;18.70;99.90;;;;;;6214271;23;20356;-78
2021/06/20 08:36:27;;;;;;;6.95;6.32;;;18.90;99.90;;;;;;6214027;23;20059;-78
2021/06/20 08:38:54;;;;;;;7.63;6.53;;;19.10;99.90;;;;;;6214629;23;19993;-80
2021/06/20 08:41:22;;;;;;;9.05;6.88;;;19.10;99.90;;;;;;6214721;23;20004;-81
2021/06/20 08:43:49;;;;;;;8.13;7.32;;;19.20;99.90;;;;;;6213849;23;20051;-80
2021/06/20 08:46:15;;;;;;;17.05;10.45;;;19.40;99.90;;;;;;6214494;23;20454;-81
2021/06/20 08:48:40;;;;;;;9.30;7.35;;;19.40;99.90;;;;;;6214049;23;20008;-81
2021/06/20 08:51:06;;;;;;;7.75;7.00;;;19.40;99.90;;;;;;6214236;23;20008;-81
2021/06/20 08:53:32;;;;;;;11.43;7.32;;;19.60;99.90;;;;;;6215221;23;20000;-81
2021/06/20 08:55:58;;;;;;;11.23;6.55;;;19.90;99.90;;;;;;6215266;23;20003;-81
2021/06/20 08:58:26;;;;;;;8.13;6.35;;;19.90;99.90;;;;;;6216059;23;20000;-81
2021/06/20 09:00:54;;;;;;;13.60;7.20;;;20.00;99.90;;;;;;6188944;23;20016;-78
2021/06/20 09:03:21;;;;;;;8.70;6.07;;;20.00;99.90;;;;;;6214951;23;20005;-81
2021/06/20 09:06:04;;;;;;;7.25;6.07;;;20.10;99.90;;;;;;6215508;23;20000;-81
2021/06/20 09:08:30;;;;;;;12.55;6.68;;;19.80;99.90;;;;;;6215794;23;20008;-81
2021/06/20 09:10:58;;;;;;;9.05;5.95;;;19.90;99.90;;;;;;6215576;23;20473;-81
2021/06/20 09:13:34;;;;;;;13.05;7.25;;;20.10;99.90;;;;;;6215002;23;20001;-81
2021/06/20 09:16:03;;;;;;;8.32;6.50;;;20.20;99.90;;;;;;6188750;23;20383;-81
2021/06/20 09:18:29;;;;;;;10.13;6.13;;;20.20;99.90;;;;;;6215024;23;20498;-81
2021/06/20 09:20:55;;;;;;;12.63;7.13;;;20.00;99.90;;;;;;6215418;23;20435;-81
2021/06/20 09:23:21;;;;;;;6.85;3.58;;;19.70;99.90;;;;;;6213776;23;20003;-81
2021/06/20 09:25:59;;;;;;;5.82;4.03;;;19.40;99.90;;;;;;6215113;23;20454;-81
2021/06/20 09:28:33;;;;;;;6.97;5.68;;;19.50;99.90;;;;;;6214616;23;19997;-81
2021/06/20 09:31:02;;;;;;;9.20;4.30;;;19.40;99.90;;;;;;6215670;23;20071;-81
2021/06/20 09:33:32;;;;;;;10.68;5.40;;;19.50;99.90;;;;;;6188145;23;20086;-81
2021/06/20 09:35:59;;;;;;;5.97;5.35;;;19.50;99.90;;;;;;6215027;23;20023;-81
2021/06/20 09:38:26;;;;;;;9.30;4.20;;;19.40;99.90;;;;;;6215364;23;20511;-81
2021/06/20 09:41:07;;;;;;;3.67;2.45;;;19.50;99.90;;;;;;6188526;23;20393;-82
2021/06/20 09:43:35;;;;;;;5.55;3.03;;;19.40;99.90;;;;;;6215627;23;20000;-82
2021/06/20 09:46:09;;;;;;;3.17;1.95;;;19.40;99.90;;;;;;6215494;23;20024;-82
2021/06/20 09:48:36;;;;;;;3.78;2.25;;;19.20;99.90;;;;;;6214907;23;20008;-82
2021/06/20 09:51:17;;;;;;;6.25;2.13;;;19.30;99.90;;;;;;6208520;23;20004;-82
2021/06/20 09:53:44;;;;;;;4.93;1.85;;;19.50;99.90;;;;;;6213295;23;20001;-81
2021/06/20 09:56:11;;;;;;;3.72;2.58;;;19.60;99.90;;;;;;6213966;23;19993;-82
2021/06/20 09:58:42;;;;;;;7.22;1.80;;;19.70;99.90;;;;;;6212951;23;20070;-82
2021/06/20 10:01:12;;;;;;;8.90;2.35;;;19.70;99.90;;;;;;6213067;23;20457;-82
2021/06/20 10:03:38;;;;;;;2.80;2.35;;;19.60;99.90;;;;;;6213709;23;20442;-82
2021/06/20 10:06:05;;;;;;;3.55;1.70;;;19.90;99.90;;;;;;6213580;23;20059;-82
2021/06/20 10:08:32;;;;;;;7.43;1.50;;;20.30;99.90;;;;;;6213951;23;20012;-82
2021/06/20 10:10:58;;;;;;;5.65;1.17;;;20.50;99.90;;;;;;6186959;23;20377;-82
2021/06/20 10:13:24;;;;;;;3.67;1.17;;;21.20;99.90;;;;;;6213742;23;20116;-81
2021/06/20 10:15:50;;;;;;;2.45;0.95;;;21.60;99.90;;;;;;6213506;23;20330;-81
2021/06/20 10:18:16;;;;;;;4.50;1.13;;;21.90;99.90;;;;;;6213563;23;19996;-81
2021/06/20 10:20:42;;;;;;;4.43;1.77;;;22.30;99.90;;;;;;6213433;23;19996;-81
2021/06/20 10:23:24;;;;;;;4.97;1.55;;;22.50;99.90;;;;;;6213282;23;19997;-81
2021/06/20 10:25:50;;;;;;;4.32;1.67;;;22.70;99.90;;;;;;6214387;23;20075;-81
2021/06/20 10:28:22;;;;;;;3.13;1.30;;;22.80;99.90;;;;;;6213347;23;20322;-81
2021/06/20 10:30:49;;;;;;;4.43;1.40;;;22.40;99.90;;;;;;6212500;23;20080;-80
2021/06/20 10:33:18;;;;;;;7.90;1.70;;;23.20;99.90;;;;;;6213295;23;20001;-81
2021/06/20 10:35:56;;;;;;;3.13;1.90;;;24.60;99.90;;;;;;6213450;23;20073;-81
2021/06/20 10:38:38;;;;;;;2.55;1.77;;;27.00;99.90;;;;;;6213295;23;20308;-81
2021/06/20 10:41:06;;;;;;;6.45;2.35;;;29.50;99.90;;;;;;6213679;23;20068;-81
2021/06/20 10:43:32;;;;;;;10.20;5.55;;;32.60;99.90;;;;;;6213452;23;20032;-81
2021/06/20 10:45:58;;;;;;;8.05;3.78;;;34.00;99.90;;;;;;6213501;23;19996;-82
2021/06/20 10:48:29;;;;;;;2.50;2.10;;;34.50;99.90;;;;;;6213202;23;20001;-81
2021/06/20 10:50:57;;;;;;;5.63;2.58;;;34.40;97.00;;;;;;6213906;23;20004;-81
2021/06/20 10:53:24;;;;;;;5.68;2.40;;;34.70;94.30;;;;;;6213266;23;20028;-82
2021/06/20 10:55:52;;;;;;;4.50;2.45;;;36.70;95.90;;;;;;6213985;23;20054;-82
2021/06/20 10:58:24;;;;;;;9.80;2.40;;;37.50;94.40;;;;;;6213610;23;19997;-82
2021/06/20 11:01:09;;;;;;;6.68;2.28;;;37.00;93.00;;;;;;6186359;23;20000;-82
2021/06/20 11:03:36;;;;;;;10.45;3.08;;;36.80;95.00;;;;;;6213295;23;20039;-81
2021/06/20 11:06:04;;;;;;;4.07;2.88;;;34.80;99.90;;;;;;6213901;23;20087;-82
2021/06/20 11:08:41;;;;;;;5.47;2.92;;;35.80;99.90;;;;;;6186557;23;20226;-82
2021/06/20 11:11:25;;;;;;;3.53;2.95;;;37.10;96.30;;;;;;6213926;23;19997;-82
2021/06/20 11:13:56;;;;;;;7.30;3.08;;;38.10;96.10;;;;;;6213396;23;20001;-82
2021/06/20 11:16:37;;;;;;;7.60;2.97;;;38.60;92.60;;;;;;6213880;23;19993;-82
2021/06/20 11:19:26;;;;;;;4.68;2.80;;;38.90;92.20;;;;;;6213498;23;20504;-82
2021/06/20 11:22:05;;;;;;;5.35;2.92;;;39.30;84.10;;;;;;6213331;23;20008;-82
2021/06/20 11:24:33;;;;;;;3.80;3.00;;;38.70;80.10;;;;;;6213130;23;20000;-80
2021/06/20 11:27:01;;;;;;;9.10;3.63;;;39.00;70.80;;;;;;6213880;23;20007;-80
2021/06/20 11:29:42;;;;;;;3.92;2.65;;;38.00;78.30;;;;;;6212852;23;19996;-80
2021/06/20 11:32:18;;;;;;;5.60;2.40;;;38.40;80.80;;;;;;6213514;23;20005;-80
2021/06/20 11:35:02;;;;;;;8.70;3.97;;;37.90;79.70;;;;;;6212869;23;20561;-80
2021/06/20 11:37:31;;;;;;;6.20;3.20;;;36.30;92.00;;;;;;6212705;23;20088;-80
2021/06/20 11:39:59;;;;;;;5.77;3.10;;;36.20;95.40;;;;;;6214536;23;19997;-79
2021/06/20 11:42:33;;;;;;;4.45;3.13;;;35.10;97.60;;;;;;6215671;23;20000;-80
2021/06/20 11:45:06;;;;;;;4.60;3.28;;;33.90;99.90;;;;;;6215207;23;20004;-80
2021/06/20 11:47:41;;;;;;;6.45;3.65;;;35.70;98.80;;;;;;6211733;23;20001;-80
2021/06/20 11:50:11;;;;;;;3.92;3.53;;;36.10;97.00;;;;;;6214742;23;20001;-82
2021/06/20 11:52:38;;;;;;;4.55;3.53;;;36.40;96.70;;;;;;6215606;23;20000;-79
2021/06/20 11:55:15;;;;;;;6.40;3.63;;;38.20;92.60;;;;;;6214899;23;20008;-78
2021/06/20 11:57:41;;;;;;;4.03;3.63;;;40.30;92.50;;;;;;6214806;23;19996;-78
2021/06/20 12:00:20;;;;;;;4.05;3.28;;;41.10;89.50;;;;;;6214613;23;20001;-78
2021/06/20 12:02:58;;;;;;;6.00;4.57;;;40.40;88.40;;;;;;6215235;23;20074;-78
2021/06/20 12:05:24;;;;;;;6.00;3.67;;;39.90;87.80;;;;;;6215640;23;20001;-78
2021/06/20 12:07:52;;;;;;;6.30;3.75;;;39.60;82.40;;;;;;6216099;23;20008;-79
2021/06/20 12:10:19;;;;;;;4.88;4.40;;;38.00;82.80;;;;;;6216376;23;20000;-79
2021/06/20 12:12:56;;;;;;;4.72;3.80;;;39.70;83.00;;;;;;6215866;23;19996;-79
2021/06/20 12:15:22;;;;;;;6.05;3.95;;;40.40;72.00;;;;;;6216091;23;20334;-79
2021/06/20 12:17:51;;;;;;;6.40;3.65;;;40.10;74.90;;;;;;6215727;23;19997;-79
2021/06/20 12:20:31;;;;;;;4.40;3.95;;;40.60;81.80;;;;;;6216210;23;19993;-79
2021/06/20 12:22:58;;;;;;;5.65;3.28;;;41.70;73.40;;;;;;6216077;23;20131;-79
2021/06/20 12:25:24;;;;;;;5.80;3.20;;;40.60;73.40;;;;;;6215914;23;20031;-79
2021/06/20 12:27:50;;;;;;;6.30;3.03;;;37.50;74.50;;;;;;6215819;23;20469;-79
2021/06/20 12:30:22;;;;;;;6.88;4.00;;;38.80;79.30;;;;;;6215626;23;20378;-79
2021/06/20 12:32:50;;;;;;;4.47;4.07;;;38.00;72.80;;;;;;6216115;23;20005;-79
2021/06/20 12:35:24;;;;;;;12.20;4.25;;;40.10;76.90;;;;;;6215681;23;20032;-79
2021/06/20 12:37:52;;;;;;;7.25;3.70;;;39.60;73.90;;;;;;6215808;23;20004;-79
2021/06/20 12:40:19;;;;;;;10.32;4.35;;;37.60;76.40;;;;;;6215769;23;19996;-79
2021/06/20 12:42:54;;;;;;;4.88;3.90;;;40.00;79.70;;;;;;6215253;23;19996;-79
2021/06/20 12:45:21;;;;;;;6.68;4.38;;;37.50;78.90;;;;;;6215741;23;20004;-79
2021/06/20 12:47:47;;;;;;;5.47;3.92;;;40.00;75.20;;;;;;6215452;23;19997;-79